Time;durP1;ratioP1;P1;durP2;ratioP2;P2;SDS_P1;SDS_P2;PMS_P1;PMS_P2;Temp;Humidity;BMP_temperature;BMP_pressure;BME280_temperature;BME280_humidity;BME280_pressure;Samples;Min_cycle;Max_cycle;Signal;HPM_P1;HPM_P2
2023/10/28 00:00:44;;;;;;;32.75;17.98;;;18.50;99.90;;;;;;5076383;28;20038;-73
2023/10/28 00:03:11;;;;;;;43.67;21.27;;;;;;;;;;5059691;28;20132;-72
2023/10/28 00:05:36;;;;;;;36.38;19.65;;;;;;;;;;5076197;28;20032;-73
2023/10/28 00:08:03;;;;;;;41.17;21.23;;;18.20;99.90;;;;;;5076125;28;20441;-73
2023/10/28 00:10:33;;;;;;;38.70;20.42;;;17.50;99.90;;;;;;5076360;28;20505;-73
2023/10/28 00:12:59;;;;;;;43.78;22.45;;;;;;;;;;5059301;28;20160;-73
2023/10/28 00:15:25;;;;;;;39.83;21.45;;;17.60;99.90;;;;;;5059384;28;20050;-73
2023/10/28 00:17:51;;;;;;;38.30;21.90;;;18.50;99.90;;;;;;5076358;28;20032;-73
2023/10/28 00:20:18;;;;;;;41.33;22.63;;;18.50;99.90;;;;;;5075779;28;20498;-72
2023/10/28 00:22:48;;;;;;;43.50;23.50;;;18.50;99.90;;;;;;5076011;28;20071;-73
2023/10/28 00:25:15;;;;;;;48.03;23.55;;;18.30;99.90;;;;;;5075742;28;20028;-73
2023/10/28 00:27:41;;;;;;;46.05;24.80;;;18.40;99.90;;;;;;5076058;28;20043;-73
2023/10/28 00:30:11;;;;;;;39.38;22.55;;;18.60;99.90;;;;;;5076199;28;20691;-73
2023/10/28 00:32:37;;;;;;;50.55;25.48;;;17.90;99.90;;;;;;5076066;28;20038;-73
2023/10/28 00:35:04;;;;;;;44.33;23.83;;;18.00;99.90;;;;;;5074311;28;20076;-73
2023/10/28 00:37:31;;;;;;;40.10;22.35;;;;;;;;;;5075986;28;20407;-73
2023/10/28 00:39:57;;;;;;;47.85;24.48;;;18.00;99.90;;;;;;5075565;28;20081;-73
2023/10/28 00:42:24;;;;;;;45.17;24.08;;;;;;;;;;5075607;28;20029;-73
2023/10/28 00:44:50;;;;;;;43.75;24.98;;;;;;;;;;5057682;28;20032;-73
2023/10/28 00:47:17;;;;;;;54.20;27.20;;;;;;;;;;5075323;28;20032;-73
2023/10/28 00:49:43;;;;;;;44.17;24.42;;;17.60;99.90;;;;;;5075578;28;20491;-73
2023/10/28 00:52:09;;;;;;;46.67;25.35;;;;;;;;;;5075666;28;20047;-73
2023/10/28 00:54:35;;;;;;;43.13;23.45;;;17.50;99.90;;;;;;5058631;28;20495;-73
2023/10/28 00:57:01;;;;;;;52.40;26.60;;;18.70;99.90;;;;;;5075262;28;20040;-73
2023/10/28 00:59:28;;;;;;;54.88;26.95;;;17.60;99.90;;;;;;5075456;28;20043;-73
2023/10/28 01:01:54;;;;;;;44.55;24.60;;;17.80;99.90;;;;;;5075323;28;20480;-73
2023/10/28 01:04:20;;;;;;;44.80;23.92;;;17.90;99.90;;;;;;5075287;28;20379;-73
2023/10/28 01:06:46;;;;;;;51.15;26.45;;;17.90;99.90;;;;;;5075059;28;20468;-72
2023/10/28 01:09:12;;;;;;;49.90;25.75;;;17.80;99.90;;;;;;5075466;28;20123;-73
2023/10/28 01:11:39;;;;;;;56.60;27.88;;;17.70;99.90;;;;;;5058483;28;20532;-73
2023/10/28 01:14:06;;;;;;;48.88;26.02;;;;;;;;;;5058266;28;20081;-73
2023/10/28 01:16:33;;;;;;;44.85;24.20;;;;;;;;;;5058408;28;20119;-73
2023/10/28 01:18:59;;;;;;;42.22;24.00;;;17.50;99.90;;;;;;5057248;28;20040;-73
2023/10/28 01:21:26;;;;;;;43.58;24.38;;;18.10;99.90;;;;;;5074547;28;20035;-73
2023/10/28 01:23:52;;;;;;;50.22;25.95;;;;;;;;;;5074413;28;20118;-73
2023/10/28 01:26:18;;;;;;;49.33;25.70;;;17.70;99.90;;;;;;5074696;28;20392;-73
2023/10/28 01:28:44;;;;;;;58.00;28.75;;;;;;;;;;5074973;28;20035;-73
2023/10/28 01:31:10;;;;;;;53.92;27.35;;;;;;;;;;5074422;28;20044;-73
2023/10/28 01:33:36;;;;;;;43.85;24.48;;;;;;;;;;5057709;28;20059;-73
2023/10/28 01:36:03;;;;;;;44.25;24.15;;;;;;;;;;5074477;28;20036;-73
2023/10/28 01:38:29;;;;;;;53.70;26.38;;;;;;;;;;5074517;28;20171;-73
2023/10/28 01:40:56;;;;;;;49.67;27.17;;;17.60;99.90;;;;;;5074404;28;20036;-73
2023/10/28 01:43:22;;;;;;;42.03;23.90;;;17.20;99.90;;;;;;5074205;28;20495;-73
2023/10/28 01:45:48;;;;;;;49.60;25.95;;;17.90;99.90;;;;;;5073924;28;20030;-73
2023/10/28 01:48:14;;;;;;;41.78;23.10;;;18.00;99.90;;;;;;5074584;28;20463;-73
2023/10/28 01:50:39;;;;;;;46.58;24.92;;;17.90;99.90;;;;;;5074544;28;20047;-73
2023/10/28 01:53:05;;;;;;;43.05;24.35;;;17.80;99.90;;;;;;5074374;28;20460;-73
2023/10/28 01:55:32;;;;;;;48.47;25.13;;;17.70;99.90;;;;;;5074083;28;20074;-72
2023/10/28 01:57:58;;;;;;;45.05;24.40;;;17.60;99.90;;;;;;5057778;28;20426;-73
2023/10/28 02:00:26;;;;;;;44.40;23.55;;;;;;;;;;5074040;28;20081;-73
2023/10/28 02:02:52;;;;;;;46.30;25.02;;;17.40;99.90;;;;;;5057472;28;20075;-73
2023/10/28 02:05:18;;;;;;;43.58;23.98;;;;;;;;;;5073817;28;20067;-72
2023/10/28 02:07:45;;;;;;;41.70;22.63;;;17.40;99.90;;;;;;5057362;28;20036;-73
2023/10/28 02:10:11;;;;;;;45.13;23.35;;;16.90;99.90;;;;;;5074041;28;20047;-73
2023/10/28 02:12:37;;;;;;;46.50;23.92;;;17.40;99.90;;;;;;5074014;28;20031;-73
2023/10/28 02:15:08;;;;;;;43.92;22.40;;;18.10;99.90;;;;;;5073523;28;20036;-73
2023/10/28 02:17:38;;;;;;;38.13;21.98;;;;;;;;;;5073883;28;20043;-73
2023/10/28 02:20:04;;;;;;;41.75;22.38;;;17.70;99.90;;;;;;5073616;28;20039;-73
2023/10/28 02:22:34;;;;;;;44.97;22.80;;;18.10;99.90;;;;;;5073810;28;20039;-73
2023/10/28 02:25:00;;;;;;;40.40;22.58;;;18.00;99.90;;;;;;5073808;28;20036;-73
2023/10/28 02:27:26;;;;;;;55.97;25.67;;;;;;;;;;5057053;28;20028;-73
2023/10/28 02:29:52;;;;;;;38.35;21.05;;;18.10;99.90;;;;;;5073628;28;20051;-73
2023/10/28 02:32:17;;;;;;;37.67;22.20;;;17.20;99.90;;;;;;5073728;28;20032;-73
2023/10/28 02:34:43;;;;;;;37.30;21.52;;;17.10;99.90;;;;;;5073511;28;20058;-73
2023/10/28 02:37:10;;;;;;;38.67;21.30;;;;;;;;;;5056924;28;20085;-73
2023/10/28 02:39:36;;;;;;;43.80;21.27;;;17.60;99.90;;;;;;5073570;28;20051;-73
2023/10/28 02:42:01;;;;;;;38.58;19.90;;;17.80;99.90;;;;;;5073604;28;20032;-73
2023/10/28 02:44:29;;;;;;;47.05;22.88;;;18.10;99.90;;;;;;5073455;28;20024;-73
2023/10/28 02:46:55;;;;;;;34.88;19.65;;;;;;;;;;5056750;28;20063;-72
2023/10/28 02:49:21;;;;;;;32.25;18.20;;;;;;;;;;5073946;28;20411;-72
2023/10/28 02:51:47;;;;;;;35.95;19.30;;;;;;;;;;5056810;28;20032;-73
2023/10/28 02:54:14;;;;;;;37.53;19.10;;;17.70;99.90;;;;;;5056869;28;20491;-73
2023/10/28 02:56:40;;;;;;;32.47;18.80;;;;;;;;;;5073921;28;20556;-73
2023/10/28 02:59:07;;;;;;;32.75;18.05;;;16.80;99.90;;;;;;5075622;28;20518;-73
2023/10/28 03:01:39;;;;;;;30.40;17.77;;;;;;;;;;5060945;28;20036;-73
2023/10/28 03:04:05;;;;;;;29.73;16.93;;;17.40;99.90;;;;;;5077479;28;20032;-73
2023/10/28 03:06:35;;;;;;;34.28;18.00;;;;;;;;;;5077632;28;20036;-73
2023/10/28 03:09:01;;;;;;;30.83;16.73;;;;;;;;;;5077651;28;20104;-73
2023/10/28 03:11:27;;;;;;;31.67;17.15;;;;;;;;;;5077249;28;20048;-73
2023/10/28 03:13:53;;;;;;;33.80;16.67;;;;;;;;;;5077441;28;20506;-73
2023/10/28 03:16:19;;;;;;;31.98;16.73;;;17.50;99.90;;;;;;5060748;28;20047;-73
2023/10/28 03:18:45;;;;;;;29.83;15.43;;;;;;;;;;5060997;28;20044;-73
2023/10/28 03:21:10;;;;;;;24.83;14.82;;;17.60;99.90;;;;;;5077112;28;20067;-73
2023/10/28 03:23:36;;;;;;;31.20;15.52;;;16.70;99.90;;;;;;5060351;28;20071;-73
2023/10/28 03:26:06;;;;;;;27.95;14.77;;;17.80;99.90;;;;;;5077245;28;20111;-72
2023/10/28 03:28:31;;;;;;;28.42;14.48;;;17.70;99.90;;;;;;5060436;28;20032;-72
2023/10/28 03:30:57;;;;;;;41.80;18.48;;;17.20;99.90;;;;;;5060363;28;20043;-73
2023/10/28 03:33:23;;;;;;;22.15;14.10;;;;;;;;;;5076749;28;20044;-73
2023/10/28 03:35:49;;;;;;;27.63;13.52;;;;;;;;;;5076784;28;20040;-73
2023/10/28 03:38:15;;;;;;;34.50;16.00;;;;;;;;;;5060467;28;20067;-73
2023/10/28 03:40:41;;;;;;;26.58;13.90;;;17.70;99.90;;;;;;5076718;28;20039;-72
2023/10/28 03:43:07;;;;;;;24.60;13.23;;;;;;;;;;5076851;28;20039;-73
2023/10/28 03:45:36;;;;;;;24.10;13.50;;;16.80;99.90;;;;;;5076760;28;20032;-73
2023/10/28 03:48:03;;;;;;;24.88;13.43;;;17.00;99.90;;;;;;5059947;28;20032;-73
2023/10/28 03:50:29;;;;;;;25.80;14.45;;;17.10;99.90;;;;;;5076817;28;20170;-73
2023/10/28 03:52:55;;;;;;;30.85;16.35;;;;;;;;;;5076437;28;20039;-73
2023/10/28 03:55:20;;;;;;;23.77;13.85;;;;;;;;;;5076211;28;20036;-73
2023/10/28 03:57:46;;;;;;;24.13;13.48;;;17.60;99.90;;;;;;5076824;28;20043;-73
2023/10/28 04:00:13;;;;;;;27.92;14.35;;;17.30;99.90;;;;;;5076419;28;20124;-72
2023/10/28 04:02:38;;;;;;;23.02;13.65;;;16.60;99.90;;;;;;5076406;28;20664;-73
2023/10/28 04:05:04;;;;;;;22.70;13.23;;;;;;;;;;5059359;28;20036;-72
2023/10/28 04:07:31;;;;;;;23.70;13.10;;;;;;;;;;5076620;28;20071;-72
2023/10/28 04:10:00;;;;;;;24.63;13.73;;;;;;;;;;5075967;28;20044;-73
2023/10/28 04:12:26;;;;;;;24.95;14.85;;;16.70;99.90;;;;;;5076355;28;20043;-73
2023/10/28 04:14:52;;;;;;;31.80;14.75;;;17.30;99.90;;;;;;5076084;28;20460;-72
2023/10/28 04:17:18;;;;;;;23.33;13.70;;;;;;;;;;5076203;28;20043;-73
2023/10/28 04:19:43;;;;;;;25.80;14.82;;;;;;;;;;5076075;28;20071;-72
2023/10/28 04:22:09;;;;;;;24.48;13.95;;;16.80;99.90;;;;;;5075996;28;20036;-73
2023/10/28 04:24:35;;;;;;;27.17;14.65;;;17.40;99.90;;;;;;5075883;28;20035;-72
2023/10/28 04:27:00;;;;;;;26.65;13.93;;;17.20;99.90;;;;;;5059339;28;20035;-72
2023/10/28 04:29:27;;;;;;;29.00;14.70;;;;;;;;;;5075973;28;20066;-72
2023/10/28 04:31:53;;;;;;;36.05;15.93;;;;;;;;;;5076259;28;20044;-73
2023/10/28 04:34:19;;;;;;;27.48;13.85;;;17.10;99.90;;;;;;5059076;28;20609;-73
2023/10/28 04:36:45;;;;;;;26.60;14.48;;;17.00;99.90;;;;;;5093770;28;20035;-73
2023/10/28 04:39:10;;;;;;;29.20;13.30;;;17.40;99.90;;;;;;5075850;28;20028;-73
2023/10/28 04:41:36;;;;;;;37.45;16.48;;;16.60;99.90;;;;;;5075636;28;20089;-73
2023/10/28 04:44:02;;;;;;;28.50;16.38;;;;;;;;;;5059086;28;20040;-73
2023/10/28 04:46:29;;;;;;;27.67;14.75;;;16.90;99.90;;;;;;5075745;28;20043;-73
2023/10/28 04:48:55;;;;;;;29.33;16.27;;;;;;;;;;5075754;28;20039;-73
2023/10/28 04:51:21;;;;;;;26.23;14.70;;;;;;;;;;5058963;28;20045;-73
2023/10/28 04:53:47;;;;;;;30.63;15.05;;;;;;;;;;5075268;28;20515;-72
2023/10/28 04:56:13;;;;;;;38.20;18.08;;;;;;;;;;5058400;28;20036;-73
2023/10/28 04:58:39;;;;;;;21.15;14.27;;;;;;;;;;5075346;28;20039;-73
2023/10/28 05:01:05;;;;;;;27.10;16.05;;;;;;;;;;5075315;28;20376;-73
2023/10/28 05:03:31;;;;;;;28.85;15.48;;;;;;;;;;5074996;28;20741;-73
2023/10/28 05:05:58;;;;;;;29.17;16.63;;;17.20;99.90;;;;;;5075013;28;20039;-72
2023/10/28 05:08:23;;;;;;;24.92;14.32;;;;;;;;;;5075278;28;20046;-73
2023/10/28 05:10:51;;;;;;;31.90;15.65;;;;;;;;;;5058400;28;20036;-73
2023/10/28 05:13:17;;;;;;;30.30;16.50;;;;;;;;;;5058101;28;20036;-72
2023/10/28 05:15:43;;;;;;;28.50;15.07;;;17.30;99.90;;;;;;5074994;28;20394;-73
2023/10/28 05:18:08;;;;;;;27.90;15.30;;;17.20;99.90;;;;;;5058631;28;20032;-73
2023/10/28 05:20:34;;;;;;;25.42;12.93;;;;;;;;;;5056329;28;20036;-73
2023/10/28 05:23:01;;;;;;;29.48;15.05;;;;;;;;;;5052205;28;20468;-73
2023/10/28 05:25:27;;;;;;;37.45;16.67;;;;;;;;;;5053696;28;20036;-72
2023/10/28 05:27:52;;;;;;;34.47;17.30;;;16.80;99.90;;;;;;5054941;28;20561;-72
2023/10/28 05:30:18;;;;;;;27.52;15.00;;;;;;;;;;5054369;28;20037;-73
2023/10/28 05:32:44;;;;;;;28.85;15.77;;;;;;;;;;5053053;28;20135;-73
2023/10/28 05:35:11;;;;;;;31.83;15.77;;;17.20;99.90;;;;;;5053871;28;20074;-73
2023/10/28 05:37:37;;;;;;;24.27;14.25;;;;;;;;;;5038430;28;20070;-72
2023/10/28 05:40:04;;;;;;;22.35;15.10;;;;;;;;;;5054691;28;20081;-73
2023/10/28 05:42:29;;;;;;;32.28;15.65;;;17.70;99.90;;;;;;5054547;28;20047;-73
2023/10/28 05:44:56;;;;;;;34.15;17.90;;;;;;;;;;5054172;28;20033;-72
2023/10/28 05:47:22;;;;;;;32.55;17.23;;;16.80;99.90;;;;;;5054188;28;20059;-73
2023/10/28 05:49:48;;;;;;;35.92;16.95;;;;;;;;;;5037211;28;20484;-73
2023/10/28 05:52:18;;;;;;;27.23;16.65;;;;;;;;;;5054336;28;20048;-73
2023/10/28 05:54:44;;;;;;;35.42;17.52;;;;;;;;;;5038944;28;20035;-72
2023/10/28 05:57:10;;;;;;;34.45;16.65;;;;;;;;;;5056193;28;20517;-73
2023/10/28 05:59:35;;;;;;;39.72;19.42;;;16.90;99.90;;;;;;5073689;28;20031;-72
2023/10/28 06:02:03;;;;;;;34.20;17.40;;;17.80;99.90;;;;;;5073804;28;20449;-72
2023/10/28 06:04:31;;;;;;;35.78;17.30;;;17.70;99.90;;;;;;5056913;28;20032;-72
2023/10/28 06:06:57;;;;;;;29.33;16.85;;;17.10;99.90;;;;;;5073974;28;20038;-73
2023/10/28 06:09:23;;;;;;;38.17;18.83;;;;;;;;;;5074132;28;20063;-73
2023/10/28 06:11:52;;;;;;;35.30;17.00;;;17.70;99.90;;;;;;5057275;28;20043;-73
2023/10/28 06:14:18;;;;;;;43.00;19.73;;;17.20;99.90;;;;;;5073804;28;20593;-73
2023/10/28 06:16:44;;;;;;;33.20;17.10;;;18.10;99.90;;;;;;5073678;28;20083;-73
2023/10/28 06:19:10;;;;;;;32.80;17.48;;;17.60;99.90;;;;;;5074039;28;20498;-73
2023/10/28 06:21:36;;;;;;;34.88;17.20;;;17.00;99.90;;;;;;5073859;28;20032;-73
2023/10/28 06:24:02;;;;;;;35.65;20.75;;;;;;;;;;5073748;28;20394;-73
2023/10/28 06:26:29;;;;;;;37.80;19.63;;;;;;;;;;5073784;28;20070;-73
2023/10/28 06:28:55;;;;;;;41.97;19.17;;;;;;;;;;5073929;28;20088;-72
2023/10/28 06:31:20;;;;;;;35.75;17.63;;;18.10;99.90;;;;;;5057008;28;20530;-72
2023/10/28 06:33:46;;;;;;;26.15;15.80;;;;;;;;;;5074398;28;20080;-73
2023/10/28 06:36:12;;;;;;;36.83;17.15;;;17.60;99.90;;;;;;5077873;28;20398;-73
2023/10/28 06:38:39;;;;;;;30.05;15.63;;;;;;;;;;5070517;28;20032;-73
2023/10/28 06:41:06;;;;;;;26.40;15.32;;;;;;;;;;5070865;28;20115;-73
2023/10/28 06:43:33;;;;;;;30.67;15.25;;;;;;;;;;5073245;28;20044;-73
2023/10/28 06:45:59;;;;;;;26.70;15.32;;;18.50;99.90;;;;;;5069394;28;20064;-73
2023/10/28 06:48:25;;;;;;;25.70;14.25;;;;;;;;;;5069321;28;20036;-74
2023/10/28 06:50:50;;;;;;;25.35;14.05;;;;;;;;;;5068099;28;20036;-73
2023/10/28 06:53:16;;;;;;;27.10;13.82;;;;;;;;;;5056097;28;20047;-73
2023/10/28 06:55:42;;;;;;;30.20;15.20;;;;;;;;;;5048762;28;20079;-73
2023/10/28 06:58:08;;;;;;;27.58;13.57;;;;;;;;;;5046702;28;20042;-73
2023/10/28 07:00:36;;;;;;;25.23;13.70;;;;;;;;;;5059013;28;20032;-73
2023/10/28 07:03:02;;;;;;;30.13;13.85;;;;;;;;;;5045251;28;20038;-73
2023/10/28 07:05:27;;;;;;;31.17;14.23;;;18.10;99.90;;;;;;5059534;28;20131;-73
2023/10/28 07:07:54;;;;;;;26.88;12.93;;;;;;;;;;5059902;28;20043;-73
2023/10/28 07:10:20;;;;;;;25.92;13.77;;;17.30;99.90;;;;;;5063333;28;20143;-74
2023/10/28 07:12:46;;;;;;;23.85;12.35;;;;;;;;;;5065523;28;20058;-73
2023/10/28 07:15:12;;;;;;;23.65;12.52;;;18.20;99.90;;;;;;5056283;28;20048;-75
2023/10/28 07:17:39;;;;;;;24.00;12.77;;;;;;;;;;5073622;28;20078;-73
2023/10/28 07:20:07;;;;;;;22.05;11.27;;;18.00;99.90;;;;;;5073503;28;20437;-73
2023/10/28 07:22:33;;;;;;;19.42;10.68;;;18.00;99.90;;;;;;5078069;28;20156;-74
2023/10/28 07:24:58;;;;;;;25.42;11.57;;;18.70;99.90;;;;;;5055999;28;20028;-74
2023/10/28 07:27:24;;;;;;;18.70;11.20;;;;;;;;;;5073533;28;20059;-74
2023/10/28 07:29:50;;;;;;;20.75;11.13;;;;;;;;;;5073300;28;20036;-74
2023/10/28 07:32:17;;;;;;;19.10;10.73;;;;;;;;;;5067813;28;20051;-73
2023/10/28 07:34:43;;;;;;;17.90;10.68;;;;;;;;;;5035625;28;20083;-73
2023/10/28 07:37:09;;;;;;;17.35;9.45;;;;;;;;;;5069958;28;20100;-73
2023/10/28 07:39:35;;;;;;;19.38;9.80;;;;;;;;;;5050906;28;20127;-74
2023/10/28 07:42:01;;;;;;;14.93;8.80;;;;;;;;;;5063806;28;20025;-75
2023/10/28 07:44:27;;;;;;;20.88;9.95;;;;;;;;;;5042635;28;20040;-72
2023/10/28 07:46:54;;;;;;;19.30;10.10;;;;;;;;;;5070497;28;20032;-73
2023/10/28 07:49:20;;;;;;;21.77;10.70;;;;;;;;;;5070220;28;20115;-74
2023/10/28 07:51:46;;;;;;;19.17;9.40;;;;;;;;;;5068538;28;20054;-73
2023/10/28 07:54:12;;;;;;;16.80;8.90;;;;;;;;;;5069088;28;20042;-74
2023/10/28 07:56:39;;;;;;;16.60;8.48;;;;;;;;;;5061511;28;20052;-73
2023/10/28 07:59:07;;;;;;;23.02;10.23;;;;;;;;;;5070766;28;20105;-74
2023/10/28 08:01:33;;;;;;;12.93;8.93;;;;;;;;;;5049334;28;20111;-74
2023/10/28 08:03:59;;;;;;;18.98;9.85;;;;;;;;;;5075611;28;20119;-73
2023/10/28 08:06:27;;;;;;;15.70;9.63;;;;;;;;;;5076132;28;20107;-73
2023/10/28 08:08:53;;;;;;;19.50;9.82;;;18.50;99.90;;;;;;5059446;28;20036;-74
2023/10/28 08:11:23;;;;;;;15.77;9.35;;;18.90;99.90;;;;;;5075521;28;20032;-74
2023/10/28 08:13:49;;;;;;;14.55;8.82;;;;;;;;;;5076248;28;20032;-73
2023/10/28 08:16:19;;;;;;;19.48;9.27;;;;;;;;;;5075699;28;20032;-74
2023/10/28 08:18:45;;;;;;;16.20;9.27;;;18.50;99.90;;;;;;5059177;28;20042;-73
2023/10/28 08:21:14;;;;;;;12.07;7.63;;;;;;;;;;5074574;28;20028;-73
2023/10/28 08:23:40;;;;;;;12.80;9.27;;;18.30;99.90;;;;;;5072390;28;20044;-73
2023/10/28 08:26:08;;;;;;;15.38;7.72;;;19.20;99.90;;;;;;5075578;28;20115;-73
2023/10/28 08:28:34;;;;;;;12.55;7.55;;;18.30;99.90;;;;;;5058213;28;20396;-73
2023/10/28 08:30:59;;;;;;;17.52;8.13;;;18.60;99.90;;;;;;5058811;28;20040;-73
2023/10/28 08:33:25;;;;;;;13.32;7.85;;;;;;;;;;5057618;28;20044;-76
2023/10/28 08:35:51;;;;;;;17.48;8.07;;;;;;;;;;5058494;28;20039;-74
2023/10/28 08:38:17;;;;;;;14.65;6.82;;;17.80;99.90;;;;;;5054730;28;20035;-74
2023/10/28 08:40:47;;;;;;;12.30;7.65;;;18.50;99.90;;;;;;5058458;28;20039;-74
2023/10/28 08:43:17;;;;;;;10.70;6.85;;;18.40;99.90;;;;;;5057396;28;20108;-74
2023/10/28 08:45:42;;;;;;;14.70;7.60;;;18.30;99.90;;;;;;5058511;28;20051;-74
2023/10/28 08:48:10;;;;;;;12.57;7.07;;;18.50;99.90;;;;;;5059065;28;20039;-74
2023/10/28 08:50:41;;;;;;;13.30;6.97;;;18.80;99.90;;;;;;5058879;28;20153;-74
2023/10/28 08:53:08;;;;;;;10.77;7.22;;;18.00;99.90;;;;;;5058556;28;20075;-73
2023/10/28 08:55:37;;;;;;;12.95;7.47;;;19.10;99.90;;;;;;5078845;22;21119;-70
2023/10/28 08:58:03;;;;;;;11.57;7.68;;;18.10;99.90;;;;;;5092186;28;20040;-69
2023/10/28 09:00:30;;;;;;;14.13;7.07;;;18.40;99.90;;;;;;5058552;28;20491;-69
2023/10/28 09:02:58;;;;;;;11.73;7.05;;;19.30;99.90;;;;;;5092092;28;20100;-71
2023/10/28 09:05:24;;;;;;;15.63;7.60;;;19.00;99.90;;;;;;5075349;28;20040;-68
2023/10/28 09:07:50;;;;;;;12.30;7.75;;;19.20;99.90;;;;;;5075068;28;20142;-68
2023/10/28 09:10:16;;;;;;;12.98;6.95;;;18.20;99.90;;;;;;5075204;28;20044;-68
2023/10/28 09:12:43;;;;;;;12.63;6.95;;;18.30;99.90;;;;;;5075335;28;20513;-69
2023/10/28 09:15:11;;;;;;;11.93;7.50;;;18.40;99.90;;;;;;5074709;28;20036;-68
2023/10/28 09:17:39;;;;;;;14.57;7.35;;;;;;;;;;5074836;28;20048;-68
2023/10/28 09:20:09;;;;;;;11.07;6.82;;;18.70;99.90;;;;;;5075020;28;20035;-68
2023/10/28 09:22:44;;;;;;;11.75;7.22;;;19.00;99.90;;;;;;5074941;28;20457;-68
2023/10/28 09:25:11;;;;;;;13.02;7.15;;;18.30;99.90;;;;;;5074681;28;20036;-68
2023/10/28 09:27:41;;;;;;;11.00;7.82;;;18.30;99.90;;;;;;5074873;28;20093;-70
2023/10/28 09:30:08;;;;;;;12.13;6.88;;;19.20;99.90;;;;;;5074708;28;20040;-70
2023/10/28 09:32:35;;;;;;;15.80;8.05;;;18.50;99.90;;;;;;5074627;28;20088;-68
2023/10/28 09:35:06;;;;;;;11.93;7.90;;;19.70;99.90;;;;;;5074282;28;20040;-69
2023/10/28 09:37:37;;;;;;;12.20;6.93;;;19.00;99.90;;;;;;5074767;28;20040;-69
2023/10/28 09:40:05;;;;;;;9.90;6.50;;;19.30;99.90;;;;;;5074475;28;20047;-69
2023/10/28 09:42:32;;;;;;;14.02;7.18;;;19.20;99.90;;;;;;5074774;28;20040;-69
2023/10/28 09:44:59;;;;;;;18.15;8.00;;;19.70;99.90;;;;;;5074287;28;20065;-69
2023/10/28 09:47:40;;;;;;;10.48;6.53;;;18.90;99.90;;;;;;5074573;28;20183;-70
2023/10/28 09:50:07;;;;;;;16.33;8.27;;;19.00;99.90;;;;;;5074674;28;20150;-69
2023/10/28 09:52:37;;;;;;;11.48;6.93;;;18.60;99.90;;;;;;5074505;28;20047;-69
2023/10/28 09:55:09;;;;;;;11.65;6.78;;;19.50;99.90;;;;;;5074061;28;20044;-71
2023/10/28 09:57:35;;;;;;;11.93;6.18;;;;;;;;;;5074302;28;20063;-70
2023/10/28 10:00:09;;;;;;;13.80;6.25;;;19.40;99.90;;;;;;5074194;28;20044;-69
2023/10/28 10:02:59;;;;;;;10.43;6.25;;;18.90;99.90;;;;;;5074253;28;20144;-68
2023/10/28 10:05:44;;;;;;;10.88;6.72;;;19.00;99.90;;;;;;5073960;28;20050;-70
2023/10/28 10:08:18;;;;;;;11.65;7.13;;;19.90;99.90;;;;;;5074090;28;20039;-69
2023/10/28 10:10:45;;;;;;;;;;;19.60;99.90;;;;;;5074328;28;20044;-70
2023/10/28 10:13:11;;;;;;;10.75;6.10;;;18.60;99.90;;;;;;5073961;28;20379;-69
2023/10/28 10:15:42;;;;;;;14.73;5.95;;;18.70;99.90;;;;;;5073975;28;20097;-69
2023/10/28 10:18:10;;;;;;;13.68;6.25;;;18.60;99.90;;;;;;5073925;28;20063;-69
2023/10/28 10:20:41;;;;;;;11.95;5.43;;;19.50;99.90;;;;;;5073680;28;20040;-69
2023/10/28 10:23:07;;;;;;;10.00;5.72;;;19.30;99.90;;;;;;5073697;28;20496;-69
2023/10/28 10:25:36;;;;;;;11.18;5.95;;;19.80;99.90;;;;;;5074205;28;20050;-69
2023/10/28 10:28:15;;;;;;;11.27;5.72;;;19.00;99.90;;;;;;5073855;28;20044;-69
2023/10/28 10:30:45;;;;;;;10.85;5.97;;;18.80;99.90;;;;;;5073976;28;20377;-69
2023/10/28 10:33:11;;;;;;;9.70;5.78;;;;;;;;;;5073458;28;20518;-70
2023/10/28 10:35:37;;;;;;;12.40;5.32;;;19.10;99.90;;;;;;5073583;28;20582;-69
2023/10/28 10:38:04;;;;;;;7.90;5.18;;;19.00;99.90;;;;;;5073711;28;20036;-69
2023/10/28 10:40:32;;;;;;;12.75;5.25;;;18.90;99.90;;;;;;5073492;28;20121;-69
2023/10/28 10:43:08;;;;;;;13.90;5.22;;;19.30;99.90;;;;;;5073720;28;20442;-68
2023/10/28 10:45:35;;;;;;;11.13;5.60;;;19.20;99.90;;;;;;5073763;28;20495;-69
2023/10/28 10:48:07;;;;;;;9.68;5.28;;;19.30;99.90;;;;;;5073932;28;20039;-69
2023/10/28 10:50:38;;;;;;;12.90;5.05;;;20.30;99.90;;;;;;5073957;28;20617;-69
2023/10/28 10:53:04;;;;;;;9.65;4.82;;;20.30;99.90;;;;;;5073728;28;20064;-69
2023/10/28 10:55:30;;;;;;;9.00;4.97;;;19.90;99.90;;;;;;5073381;28;20040;-69
2023/10/28 10:57:57;;;;;;;10.23;4.70;;;19.60;99.90;;;;;;5073764;28;20499;-69
2023/10/28 11:00:23;;;;;;;11.98;5.00;;;20.20;99.90;;;;;;5073327;28;20032;-69
2023/10/28 11:02:50;;;;;;;14.57;4.80;;;19.50;99.90;;;;;;5073521;28;20040;-69
2023/10/28 11:05:17;;;;;;;9.55;4.35;;;20.10;99.90;;;;;;5073096;28;20047;-69
2023/10/28 11:07:43;;;;;;;11.73;4.90;;;20.00;99.90;;;;;;5073538;28;20044;-70
2023/10/28 11:10:10;;;;;;;12.68;4.32;;;19.40;99.90;;;;;;5073450;28;20047;-70
2023/10/28 11:12:39;;;;;;;9.38;4.70;;;19.50;99.90;;;;;;5073661;28;20043;-70
2023/10/28 11:15:06;;;;;;;8.88;4.80;;;20.20;99.90;;;;;;5072996;28;20040;-70
2023/10/28 11:17:32;;;;;;;18.30;5.13;;;19.80;99.90;;;;;;5073241;28;20044;-70
2023/10/28 11:20:03;;;;;;;11.75;4.22;;;20.00;99.90;;;;;;5074939;28;20096;-70
2023/10/28 11:22:31;;;;;;;11.32;5.00;;;19.80;99.90;;;;;;5077208;28;20566;-70
2023/10/28 11:24:57;;;;;;;14.57;4.82;;;;;;;;;;5076922;28;20036;-70
2023/10/28 11:27:25;;;;;;;9.07;4.50;;;19.70;99.90;;;;;;5076957;28;20036;-70
2023/10/28 11:29:51;;;;;;;9.32;4.25;;;19.90;99.90;;;;;;5077265;28;20044;-70
2023/10/28 11:32:21;;;;;;;10.43;4.72;;;20.20;99.90;;;;;;5076916;28;20043;-70
2023/10/28 11:34:48;;;;;;;10.30;3.75;;;19.80;99.90;;;;;;5076765;28;20047;-71
2023/10/28 11:37:13;;;;;;;13.20;4.40;;;19.50;99.90;;;;;;5076874;28;20169;-68
2023/10/28 11:39:40;;;;;;;10.60;4.60;;;19.70;99.90;;;;;;5076822;28;20126;-68
2023/10/28 11:42:08;;;;;;;11.20;4.15;;;19.50;99.90;;;;;;5076597;28;20032;-68
2023/10/28 11:44:34;;;;;;;9.65;3.92;;;20.00;99.90;;;;;;5076488;28;20047;-68
2023/10/28 11:47:00;;;;;;;9.02;4.20;;;19.80;99.90;;;;;;5076574;28;20040;-69
2023/10/28 11:49:26;;;;;;;9.13;4.43;;;;;;;;;;5076660;28;20040;-69
2023/10/28 11:51:52;;;;;;;8.65;4.43;;;;;;;;;;5076507;28;20040;-70
2023/10/28 11:54:18;;;;;;;11.30;4.00;;;;;;;;;;5076370;28;20048;-70
2023/10/28 11:56:43;;;;;;;7.82;4.20;;;19.40;99.90;;;;;;5093514;28;20032;-69
2023/10/28 11:59:11;;;;;;;9.27;4.50;;;20.00;99.90;;;;;;5076746;28;20067;-69
2023/10/28 12:01:37;;;;;;;6.50;4.15;;;;;;;;;;5076251;28;20043;-69
2023/10/28 12:04:03;;;;;;;8.98;3.97;;;20.30;99.90;;;;;;5076105;28;20048;-70
2023/10/28 12:06:33;;;;;;;12.38;3.83;;;20.30;99.90;;;;;;5076172;28;20036;-69
2023/10/28 12:08:59;;;;;;;10.10;4.18;;;;;;;;;;5076571;28;20071;-70
2023/10/28 12:11:27;;;;;;;12.15;4.22;;;20.30;99.90;;;;;;5076318;28;20051;-70
2023/10/28 12:13:54;;;;;;;6.80;3.90;;;20.00;99.90;;;;;;5076010;28;20085;-70
2023/10/28 12:16:20;;;;;;;15.38;5.32;;;20.70;99.90;;;;;;5075983;28;20452;-70
2023/10/28 12:18:45;;;;;;;9.18;4.97;;;20.10;99.90;;;;;;5076110;28;20051;-70
2023/10/28 12:21:12;;;;;;;8.85;3.80;;;;;;;;;;5075956;28;20515;-71
2023/10/28 12:23:38;;;;;;;12.05;4.32;;;19.80;99.90;;;;;;5075788;28;20040;-70
2023/10/28 12:26:04;;;;;;;10.90;4.15;;;20.60;99.90;;;;;;5075795;28;20047;-70
2023/10/28 12:28:30;;;;;;;9.50;4.25;;;19.90;99.90;;;;;;5076171;28;20039;-70
2023/10/28 12:30:56;;;;;;;8.13;3.58;;;;;;;;;;5075660;28;20491;-71
2023/10/28 12:33:22;;;;;;;10.18;4.07;;;;;;;;;;5059081;28;20051;-69
2023/10/28 12:35:48;;;;;;;8.82;4.22;;;20.20;99.90;;;;;;5075727;28;20044;-69
2023/10/28 12:38:13;;;;;;;10.23;4.05;;;19.90;99.90;;;;;;5075604;28;20613;-70
2023/10/28 12:40:39;;;;;;;9.50;4.32;;;20.40;99.90;;;;;;5075622;28;20119;-70
2023/10/28 12:43:05;;;;;;;11.32;4.13;;;20.00;99.90;;;;;;5075633;28;20177;-70
2023/10/28 12:45:31;;;;;;;7.55;4.07;;;;;;;;;;5075518;28;20408;-70
2023/10/28 12:47:57;;;;;;;15.60;5.53;;;;;;;;;;5075527;28;20043;-70
2023/10/28 12:50:23;;;;;;;10.40;3.88;;;;;;;;;;5075488;28;20044;-71
2023/10/28 12:52:49;;;;;;;11.02;4.32;;;;;;;;;;5075636;28;20044;-71
2023/10/28 12:55:15;;;;;;;9.55;3.92;;;20.90;99.90;;;;;;5092094;28;20049;-70
2023/10/28 12:57:41;;;;;;;9.20;3.90;;;;;;;;;;5075230;28;20046;-70
2023/10/28 13:00:10;;;;;;;7.30;3.42;;;20.40;99.90;;;;;;5075561;28;20079;-70
2023/10/28 13:02:37;;;;;;;14.80;3.95;;;20.50;99.90;;;;;;5075478;28;20036;-70
2023/10/28 13:05:04;;;;;;;8.85;3.90;;;;;;;;;;5075306;28;20468;-70
2023/10/28 13:07:30;;;;;;;10.98;3.80;;;;;;;;;;5074946;28;20040;-69
2023/10/28 13:09:55;;;;;;;10.82;4.38;;;20.10;99.90;;;;;;5074974;28;20040;-70